Time,TemperatureF,DewpointF,PressureIn,WindDirection,WindDirectionDegrees,WindSpeedMPH,WindSpeedGustMPH,Humidity,HourlyPrecipIn,Conditions,Clouds,dailyrainin,SoftwareType,DateUTC
2013-02-01 00:00:00,42.8,32.2,30.08,WSW,250,6.0,7.0,66,0.00,,SKC,0.20,VWS V13.00,2013-02-01 05:00:00,
2013-02-01 00:01:00,42.8,32.2,30.08,West,263,4.0,8.0,66,0.00,,SKC,0.20,VWS V13.00,2013-02-01 05:01:00,
2013-02-01 00:06:00,42.7,32.2,30.08,WSW,258,4.0,13.0,66,0.00,,SKC,0.00,VWS V13.00,2013-02-01 05:06:00,
2013-02-01 00:11:00,42.8,32.2,30.08,WSW,257,4.0,12.0,66,0.00,,SKC,0.00,VWS V13.00,2013-02-01 05:11:00,
2013-02-01 00:16:00,42.8,32.2,30.07,West,263,5.0,9.0,66,0.00,,SKC,0.00,VWS V13.00,2013-02-01 05:16:00,
2013-02-01 00:21:00,42.9,32.3,30.07,West,260,5.0,9.0,66,0.00,,SKC,0.00,VWS V13.00,2013-02-01 05:21:00,
2013-02-01 00:26:00,42.9,32.3,30.08,WSW,239,3.0,9.0,66,0.00,,SKC,0.00,VWS V13.00,2013-02-01 05:26:00,
2013-02-01 00:31:00,42.9,32.3,30.08,WSW,240,4.0,12.0,66,0.00,,SKC,0.00,VWS V13.00,2013-02-01 05:31:00,
2013-02-01 00:36:00,42.9,32.3,30.08,WSW,253,4.0,13.0,66,0.00,,SKC,0.00,VWS V13.00,2013-02-01 05:36:00,
2013-02-01 00:41:00,43.0,32.4,30.08,WSW,240,6.0,14.0,66,0.00,,SKC,0.00,VWS V13.00,2013-02-01 05:41:00,
2013-02-01 00:46:00,43.1,32.5,30.08,WSW,251,8.0,13.0,66,0.00,,SKC,0.00,VWS V13.00,2013-02-01 05:46:00,
2013-02-01 00:51:00,43.2,32.6,30.09,WSW,254,8.0,12.0,66,0.00,,SKC,0.00,VWS V13.00,2013-02-01 05:51:00,
2013-02-01 00:56:00,43.3,32.7,30.09,West,270,6.0,14.0,66,0.00,,SKC,0.00,VWS V13.00,2013-02-01 05:56:00,
2013-02-01 01:01:00,43.4,32.8,30.09,WNW,282,7.0,12.0,66,0.00,,SKC,0.00,VWS V13.00,2013-02-01 06:01:00,
2013-02-01 01:06:00,43.5,32.9,30.08,WNW,284,9.0,14.0,66,0.00,,SKC,0.00,VWS V13.00,2013-02-01 06:06:00,
2013-02-01 01:11:00,43.6,32.6,30.08,WSW,244,7.0,14.0,65,0.00,,SKC,0.00,VWS V13.00,2013-02-01 06:11:00,
2013-02-01 01:16:00,43.7,32.7,30.09,WSW,242,8.0,12.0,65,0.00,,SKC,0.00,VWS V13.00,2013-02-01 06:16:00,
2013-02-01 01:21:00,43.7,33.1,30.09,WSW,251,9.0,13.0,66,0.00,,SKC,0.00,VWS V13.00,2013-02-01 06:21:00,
2013-02-01 01:26:00,43.7,33.1,30.09,West,270,7.0,15.0,66,0.00,,SKC,0.00,VWS V13.00,2013-02-01 06:26:00,
2013-02-01 01:31:00,43.8,33.2,30.09,West,269,7.0,14.0,66,0.00,,SKC,0.00,VWS V13.00,2013-02-01 06:31:00,
2013-02-01 01:36:00,43.8,32.8,30.08,West,273,4.0,12.0,65,0.00,,SKC,0.00,VWS V13.00,2013-02-01 06:36:00,
2013-02-01 01:41:00,43.8,32.8,30.09,SW,227,12.0,15.0,65,0.00,,SKC,0.00,VWS V13.00,2013-02-01 06:41:00,
2013-02-01 01:46:00,43.8,32.8,30.09,SW,235,6.0,13.0,65,0.00,,SKC,0.00,VWS V13.00,2013-02-01 06:46:00,
2013-02-01 01:51:00,43.8,32.8,30.09,WSW,247,8.0,13.0,65,0.00,,SKC,0.00,VWS V13.00,2013-02-01 06:51:00,
2013-02-01 01:56:00,43.8,32.8,30.09,WSW,256,6.0,11.0,65,0.00,,SKC,0.00,VWS V13.00,2013-02-01 06:56:00,
2013-02-01 02:01:00,43.8,32.8,30.09,WNW,284,10.0,17.0,65,0.00,,SKC,0.00,VWS V13.00,2013-02-01 07:01:00,
2013-02-01 02:06:00,43.8,32.8,30.09,West,275,5.0,14.0,65,0.00,,SKC,0.00,VWS V13.00,2013-02-01 07:06:00,
2013-02-01 02:11:00,43.8,32.8,30.09,West,279,5.0,12.0,65,0.00,,SKC,0.00,VWS V13.00,2013-02-01 07:11:00,
2013-02-01 02:16:00,43.7,32.7,30.09,WSW,256,7.0,15.0,65,0.00,,SKC,0.00,VWS V13.00,2013-02-01 07:16:00,
2013-02-01 02:21:00,43.7,32.7,30.08,SW,233,6.0,15.0,65,0.00,,SKC,0.00,VWS V13.00,2013-02-01 07:21:00,
2013-02-01 02:26:00,43.7,32.7,30.08,WSW,243,8.0,14.0,65,0.00,,SKC,0.00,VWS V13.00,2013-02-01 07:26:00,
2013-02-01 02:31:00,43.6,32.6,30.08,West,281,7.0,15.0,65,0.00,,SKC,0.00,VWS V13.00,2013-02-01 07:31:00,
2013-02-01 02:36:00,43.5,32.5,30.08,WSW,247,6.0,13.0,65,0.00,,SKC,0.00,VWS V13.00,2013-02-01 07:36:00,
2013-02-01 02:41:00,43.4,32.4,30.08,West,268,4.0,11.0,65,0.00,,SKC,0.00,VWS V13.00,2013-02-01 07:41:00,
2013-02-01 02:46:00,43.3,32.3,30.08,West,265,5.0,13.0,65,0.00,,SKC,0.00,VWS V13.00,2013-02-01 07:46:00,
2013-02-01 02:51:00,43.2,32.2,30.07,West,268,9.0,15.0,65,0.00,,SKC,0.00,VWS V13.00,2013-02-01 07:51:00,
2013-02-01 02:56:00,43.1,32.2,30.07,WSW,247,6.0,15.0,65,0.00,,SKC,0.00,VWS V13.00,2013-02-01 07:56:00,
2013-02-01 03:01:00,42.9,32.0,30.07,WSW,254,10.0,12.0,65,0.00,,SKC,0.00,VWS V13.00,2013-02-01 08:01:00,
2013-02-01 03:06:00,42.9,32.0,30.07,SW,220,6.0,13.0,65,0.00,,SKC,0.00,VWS V13.00,2013-02-01 08:06:00,
2013-02-01 03:11:00,42.7,31.8,30.07,WSW,248,8.0,12.0,65,0.00,,SKC,0.00,VWS V13.00,2013-02-01 08:11:00,
2013-02-01 03:16:00,42.6,31.7,30.07,WSW,238,4.0,12.0,65,0.00,,SKC,0.00,VWS V13.00,2013-02-01 08:16:00,
2013-02-01 03:21:00,42.5,31.6,30.06,WSW,256,12.0,12.0,65,0.00,,SKC,0.00,VWS V13.00,2013-02-01 08:21:00,
2013-02-01 03:26:00,42.4,31.5,30.06,West,261,7.0,11.0,65,0.00,,SKC,0.00,VWS V13.00,2013-02-01 08:26:00,
2013-02-01 03:31:00,42.3,31.4,30.06,West,259,2.0,13.0,65,0.00,,SKC,0.00,VWS V13.00,2013-02-01 08:31:00,
2013-02-01 03:36:00,42.2,31.3,30.07,WNW,292,8.0,11.0,65,0.00,,SKC,0.00,VWS V13.00,2013-02-01 08:36:00,
2013-02-01 03:41:00,42.1,31.2,30.06,West,270,1.0,11.0,65,0.00,,SKC,0.00,VWS V13.00,2013-02-01 08:41:00,
2013-02-01 03:46:00,42.0,31.1,30.07,WSW,249,8.0,14.0,65,0.00,,SKC,0.00,VWS V13.00,2013-02-01 08:46:00,
2013-02-01 03:51:00,42.0,31.1,30.07,SSW,202,4.0,12.0,65,0.00,,SKC,0.00,VWS V13.00,2013-02-01 08:51:00,
2013-02-01 03:56:00,42.1,30.8,30.07,West,263,11.0,14.0,64,0.00,,SKC,0.00,VWS V13.00,2013-02-01 08:56:00,
2013-02-01 04:01:00,42.1,31.2,30.06,West,265,9.0,14.0,65,0.00,,SKC,0.00,VWS V13.00,2013-02-01 09:01:00,
2013-02-01 04:06:00,42.1,31.2,30.06,SW,224,11.0,14.0,65,0.00,,SKC,0.00,VWS V13.00,2013-02-01 09:06:00,
2013-02-01 04:11:00,42.2,31.3,30.06,SW,227,9.0,15.0,65,0.00,,SKC,0.00,VWS V13.00,2013-02-01 09:11:00,
2013-02-01 04:16:00,42.3,31.4,30.06,WNW,285,3.0,15.0,65,0.00,,SKC,0.00,VWS V13.00,2013-02-01 09:16:00,
2013-02-01 04:21:00,42.3,31.4,30.06,WSW,243,11.0,15.0,65,0.00,,SKC,0.00,VWS V13.00,2013-02-01 09:21:00,
2013-02-01 04:26:00,42.3,31.4,30.06,West,261,12.0,16.0,65,0.00,,SKC,0.00,VWS V13.00,2013-02-01 09:26:00,
2013-02-01 04:31:00,42.3,31.4,30.06,West,271,6.0,17.0,65,0.00,,SKC,0.00,VWS V13.00,2013-02-01 09:31:00,
2013-02-01 04:36:00,42.3,31.4,30.05,WSW,254,16.0,18.0,65,0.00,,SKC,0.00,VWS V13.00,2013-02-01 09:36:00,
2013-02-01 04:41:00,42.5,31.6,30.06,WSW,250,13.0,18.0,65,0.00,,SKC,0.00,VWS V13.00,2013-02-01 09:41:00,
2013-02-01 04:46:00,42.7,31.8,30.05,SW,229,11.0,18.0,65,0.00,,SKC,0.00,VWS V13.00,2013-02-01 09:46:00,
2013-02-01 04:51:00,42.8,31.9,30.05,SSW,207,13.0,19.0,65,0.00,,SKC,0.00,VWS V13.00,2013-02-01 09:51:00,
2013-02-01 04:56:00,42.9,32.0,30.05,WNW,290,7.0,19.0,65,0.00,,SKC,0.00,VWS V13.00,2013-02-01 09:56:00,
2013-02-01 05:01:00,43.0,32.1,30.05,SW,219,7.0,16.0,65,0.00,,SKC,0.00,VWS V13.00,2013-02-01 10:01:00,
2013-02-01 05:06:00,43.0,32.1,30.05,WSW,240,7.0,19.0,65,0.00,,SKC,0.00,VWS V13.00,2013-02-01 10:06:00,
2013-02-01 05:11:00,43.1,32.2,30.05,SW,223,5.0,15.0,65,0.00,,SKC,0.00,VWS V13.00,2013-02-01 10:11:00,
2013-02-01 05:16:00,43.1,32.2,30.04,WSW,257,7.0,20.0,65,0.00,,SKC,0.00,VWS V13.00,2013-02-01 10:16:00,
2013-02-01 05:21:00,43.2,32.2,30.04,WNW,285,8.0,18.0,65,0.00,,SKC,0.00,VWS V13.00,2013-02-01 10:21:00,
2013-02-01 05:26:00,43.4,32.4,30.04,WSW,258,20.0,23.0,65,0.00,,SKC,0.00,VWS V13.00,2013-02-01 10:26:00,
2013-02-01 05:31:00,43.6,32.6,30.05,WSW,246,13.0,19.0,65,0.00,,SKC,0.00,VWS V13.00,2013-02-01 10:31:00,
2013-02-01 05:36:00,43.7,32.7,30.05,WSW,257,6.0,21.0,65,0.00,,SKC,0.00,VWS V13.00,2013-02-01 10:36:00,
2013-02-01 05:41:00,43.8,32.8,30.05,West,279,4.0,20.0,65,0.00,,SKC,0.00,VWS V13.00,2013-02-01 10:41:00,
2013-02-01 05:46:00,43.8,32.8,30.05,West,268,11.0,22.0,65,0.00,,SKC,0.00,VWS V13.00,2013-02-01 10:46:00,
2013-02-01 05:51:00,43.9,32.9,30.04,West,269,13.0,19.0,65,0.00,,SKC,0.00,VWS V13.00,2013-02-01 10:51:00,
2013-02-01 05:56:00,44.1,33.1,30.04,WSW,247,9.0,20.0,65,0.00,,SKC,0.00,VWS V13.00,2013-02-01 10:56:00,
2013-02-01 06:01:00,44.3,33.3,30.04,WSW,240,16.0,22.0,65,0.00,,SKC,0.00,VWS V13.00,2013-02-01 11:01:00,
2013-02-01 06:06:00,44.5,33.5,30.04,SSW,206,12.0,23.0,65,0.00,,SKC,0.00,VWS V13.00,2013-02-01 11:06:00,
2013-02-01 06:11:00,44.7,33.7,30.04,WSW,254,20.0,22.0,65,0.00,,SKC,0.00,VWS V13.00,2013-02-01 11:11:00,
2013-02-01 06:16:00,45.0,34.0,30.04,WSW,250,13.0,24.0,65,0.00,,SKC,0.00,VWS V13.00,2013-02-01 11:16:00,
2013-02-01 06:21:00,45.3,34.2,30.04,WSW,248,17.0,24.0,65,0.00,,SKC,0.00,VWS V13.00,2013-02-01 11:21:00,
2013-02-01 06:26:00,45.5,34.4,30.04,SW,218,9.0,26.0,65,0.00,,SKC,0.00,VWS V13.00,2013-02-01 11:26:00,
2013-02-01 06:31:00,45.8,34.7,30.04,SSW,202,14.0,24.0,65,0.00,,SKC,0.00,VWS V13.00,2013-02-01 11:31:00,
2013-02-01 06:36:00,46.0,34.9,30.03,West,265,20.0,24.0,65,0.00,,SKC,0.00,VWS V13.00,2013-02-01 11:36:00,
2013-02-01 06:41:00,46.1,35.0,30.03,South,182,16.0,24.0,65,0.00,,SKC,0.00,VWS V13.00,2013-02-01 11:41:00,
2013-02-01 06:46:00,46.3,35.2,30.03,WSW,248,9.0,25.0,65,0.00,,SKC,0.00,VWS V13.00,2013-02-01 11:46:00,
2013-02-01 06:51:00,46.4,35.3,30.03,SSW,198,20.0,25.0,65,0.00,,SKC,0.00,VWS V13.00,2013-02-01 11:51:00,
2013-02-01 06:56:00,46.5,35.4,30.03,SSW,201,23.0,28.0,65,0.00,,SKC,0.00,VWS V13.00,2013-02-01 11:56:00,
2013-02-01 07:01:00,46.7,35.6,30.03,West,260,14.0,24.0,65,0.00,,SKC,0.00,VWS V13.00,2013-02-01 12:01:00,
2013-02-01 07:06:00,46.9,35.8,30.03,WSW,237,9.0,24.0,65,0.00,,SKC,0.00,VWS V13.00,2013-02-01 12:06:00,
2013-02-01 07:11:00,47.1,36.0,30.03,WSW,250,12.0,23.0,65,0.00,,SKC,0.00,VWS V13.00,2013-02-01 12:11:00,
2013-02-01 07:16:00,47.3,36.2,30.03,SW,223,19.0,29.0,65,0.00,,SKC,0.00,VWS V13.00,2013-02-01 12:16:00,
2013-02-01 07:21:00,47.4,36.2,30.03,SSW,202,15.0,25.0,65,0.00,,SKC,0.00,VWS V13.00,2013-02-01 12:21:00,
2013-02-01 07:26:00,47.4,36.2,30.03,SW,217,10.0,26.0,65,0.00,,SKC,0.00,VWS V13.00,2013-02-01 12:26:00,
2013-02-01 07:31:00,47.6,36.4,30.03,WSW,238,24.0,24.0,65,0.00,,SKC,0.00,VWS V13.00,2013-02-01 12:31:00,
2013-02-01 07:36:00,47.6,36.4,30.02,West,273,14.0,23.0,65,0.00,,SKC,0.00,VWS V13.00,2013-02-01 12:36:00,
2013-02-01 07:41:00,47.6,36.4,30.03,SW,224,8.0,25.0,65,0.00,,SKC,0.00,VWS V13.00,2013-02-01 12:41:00,
2013-02-01 07:46:00,47.7,36.5,30.03,WSW,244,19.0,24.0,65,0.00,,SKC,0.00,VWS V13.00,2013-02-01 12:46:00,
2013-02-01 07:51:00,47.6,36.4,30.03,West,281,7.0,24.0,65,0.00,,SKC,0.00,VWS V13.00,2013-02-01 12:51:00,
2013-02-01 07:56:00,47.6,36.0,30.03,West,270,12.0,21.0,64,0.00,,SKC,0.00,VWS V13.00,2013-02-01 12:56:00,
2013-02-01 08:01:00,47.7,36.1,30.03,SW,236,15.0,24.0,64,0.00,,SKC,0.00,VWS V13.00,2013-02-01 13:01:00,
2013-02-01 08:06:00,47.8,36.2,30.03,West,260,17.0,27.0,64,0.00,,SKC,0.00,VWS V13.00,2013-02-01 13:06:00,
2013-02-01 08:11:00,47.8,36.2,30.03,SSE,153,18.0,30.0,64,0.00,,SKC,0.00,VWS V13.00,2013-02-01 13:11:00,
2013-02-01 08:16:00,48.1,36.5,30.03,SSW,207,23.0,25.0,64,0.00,,SKC,0.00,VWS V13.00,2013-02-01 13:16:00,
2013-02-01 08:21:00,48.2,36.6,30.03,WSW,244,9.0,23.0,64,0.00,,SKC,0.00,VWS V13.00,2013-02-01 13:21:00,
2013-02-01 08:26:00,48.4,36.8,30.04,WNW,292,11.0,21.0,64,0.00,,SKC,0.00,VWS V13.00,2013-02-01 13:26:00,
2013-02-01 08:31:00,48.6,37.0,30.04,WSW,241,8.0,26.0,64,0.00,,SKC,0.00,VWS V13.00,2013-02-01 13:31:00,
2013-02-01 08:36:00,48.9,37.3,30.04,West,269,12.0,24.0,64,0.00,,SKC,0.00,VWS V13.00,2013-02-01 13:36:00,
2013-02-01 08:41:00,49.1,37.1,30.04,WSW,250,13.0,19.0,63,0.00,,SKC,0.00,VWS V13.00,2013-02-01 13:41:00,
2013-02-01 08:46:00,49.2,37.2,30.04,West,269,6.0,19.0,63,0.00,,SKC,0.00,VWS V13.00,2013-02-01 13:46:00,
2013-02-01 08:51:00,49.4,37.3,30.04,WSW,257,16.0,22.0,63,0.00,,SKC,0.00,VWS V13.00,2013-02-01 13:51:00,
2013-02-01 08:56:00,49.6,37.1,30.05,WSW,252,12.0,22.0,62,0.00,,SKC,0.00,VWS V13.00,2013-02-01 13:56:00,
2013-02-01 09:01:00,49.9,37.4,30.05,West,276,8.0,25.0,62,0.00,,SKC,0.00,VWS V13.00,2013-02-01 14:01:00,
2013-02-01 09:06:00,50.1,37.2,30.05,West,261,13.0,24.0,61,0.00,,SKC,0.00,VWS V13.00,2013-02-01 14:06:00,
2013-02-01 09:11:00,50.5,37.6,30.05,West,276,9.0,24.0,61,0.00,,SKC,0.00,VWS V13.00,2013-02-01 14:11:00,
2013-02-01 09:16:00,50.8,37.8,30.05,WSW,246,7.0,21.0,61,0.00,,SKC,0.00,VWS V13.00,2013-02-01 14:16:00,
2013-02-01 09:21:00,51.3,37.9,30.05,WSW,238,10.0,20.0,60,0.00,,SKC,0.00,VWS V13.00,2013-02-01 14:21:00,
2013-02-01 09:26:00,51.6,38.2,30.05,NW,304,7.0,21.0,60,0.00,,SKC,0.00,VWS V13.00,2013-02-01 14:26:00,
2013-02-01 09:31:00,51.9,38.5,30.05,WSW,250,13.0,20.0,60,0.00,,SKC,0.00,VWS V13.00,2013-02-01 14:31:00,
2013-02-01 09:36:00,52.1,38.7,30.05,West,269,11.0,25.0,60,0.00,,SKC,0.00,VWS V13.00,2013-02-01 14:36:00,
2013-02-01 09:41:00,52.2,38.8,30.06,West,270,19.0,25.0,60,0.00,,SKC,0.00,VWS V13.00,2013-02-01 14:41:00,
2013-02-01 09:46:00,52.3,38.8,30.06,WSW,257,13.0,25.0,60,0.00,,SKC,0.00,VWS V13.00,2013-02-01 14:46:00,
2013-02-01 09:51:00,52.4,38.5,30.06,NNE,18,7.0,26.0,59,0.00,,SKC,0.00,VWS V13.00,2013-02-01 14:51:00,
2013-02-01 09:56:00,52.5,38.6,30.06,WSW,246,14.0,19.0,59,0.00,,SKC,0.00,VWS V13.00,2013-02-01 14:56:00,
2013-02-01 10:01:00,52.7,38.8,30.06,WNW,286,13.0,20.0,59,0.00,,SKC,0.00,VWS V13.00,2013-02-01 15:01:00,
2013-02-01 10:06:00,53.1,39.2,30.06,West,267,8.0,20.0,59,0.00,,SKC,0.00,VWS V13.00,2013-02-01 15:06:00,
2013-02-01 10:11:00,53.4,39.5,30.06,West,264,11.0,23.0,59,0.00,,SKC,0.00,VWS V13.00,2013-02-01 15:11:00,
2013-02-01 10:16:00,53.7,39.7,30.06,WNW,287,5.0,18.0,59,0.00,,SKC,0.00,VWS V13.00,2013-02-01 15:16:00,
2013-02-01 10:21:00,54.1,40.1,30.06,NW,312,5.0,19.0,59,0.00,,SKC,0.00,VWS V13.00,2013-02-01 15:21:00,
2013-02-01 10:26:00,54.2,40.2,30.07,WNW,297,12.0,23.0,59,0.00,,SKC,0.00,VWS V13.00,2013-02-01 15:26:00,
2013-02-01 10:31:00,54.1,39.7,30.07,WSW,248,23.0,26.0,58,0.00,,SKC,0.00,VWS V13.00,2013-02-01 15:31:00,
2013-02-01 10:36:00,53.9,39.5,30.07,West,265,24.0,28.0,58,0.00,,SKC,0.00,VWS V13.00,2013-02-01 15:36:00,
2013-02-01 10:41:00,53.9,39.5,30.08,WNW,300,4.0,19.0,58,0.00,,SKC,0.00,VWS V13.00,2013-02-01 15:41:00,
2013-02-01 10:46:00,54.0,39.6,30.08,West,266,8.0,26.0,58,0.00,,SKC,0.00,VWS V13.00,2013-02-01 15:46:00,
2013-02-01 10:51:00,54.0,39.6,30.08,WNW,294,12.0,22.0,58,0.00,,SKC,0.00,VWS V13.00,2013-02-01 15:51:00,
2013-02-01 10:56:00,54.1,39.7,30.08,WNW,295,14.0,23.0,58,0.00,,SKC,0.00,VWS V13.00,2013-02-01 15:56:00,
2013-02-01 11:01:00,54.3,39.8,30.08,NW,308,4.0,18.0,58,0.00,,SKC,0.00,VWS V13.00,2013-02-01 16:01:00,
2013-02-01 11:06:00,54.2,39.8,30.08,WNW,295,15.0,18.0,58,0.00,,SKC,0.00,VWS V13.00,2013-02-01 16:06:00,
2013-02-01 11:11:00,54.6,40.1,30.09,NW,321,5.0,22.0,58,0.00,,SKC,0.00,VWS V13.00,2013-02-01 16:11:00,
2013-02-01 11:16:00,54.9,40.4,30.09,NW,323,11.0,19.0,58,0.00,,SKC,0.00,VWS V13.00,2013-02-01 16:16:00,
2013-02-01 11:21:00,54.4,39.5,30.09,WNW,293,6.0,24.0,57,0.00,,SKC,0.00,VWS V13.00,2013-02-01 16:21:00,
2013-02-01 11:26:00,53.6,38.8,30.10,WNW,302,13.0,21.0,57,0.00,,SKC,0.00,VWS V13.00,2013-02-01 16:26:00,
2013-02-01 11:31:00,53.2,38.8,30.09,NW,317,4.0,17.0,58,0.00,,SKC,0.00,VWS V13.00,2013-02-01 16:31:00,
2013-02-01 11:36:00,53.4,38.6,30.10,NW,310,16.0,23.0,57,0.00,,SKC,0.00,VWS V13.00,2013-02-01 16:36:00,
2013-02-01 11:41:00,52.8,38.5,30.11,NW,325,5.0,19.0,58,0.00,,SKC,0.00,VWS V13.00,2013-02-01 16:41:00,
2013-02-01 11:46:00,52.0,37.7,30.11,North,355,9.0,18.0,58,0.00,,SKC,0.00,VWS V13.00,2013-02-01 16:46:00,
2013-02-01 11:51:00,51.4,37.1,30.12,North,360,16.0,23.0,58,0.00,,SKC,0.00,VWS V13.00,2013-02-01 16:51:00,
2013-02-01 11:56:00,50.7,36.5,30.12,NW,314,15.0,20.0,58,0.00,,SKC,0.00,VWS V13.00,2013-02-01 16:56:00,
2013-02-01 12:01:00,50.5,36.3,30.12,NNW,340,8.0,23.0,58,0.00,,SKC,0.00,VWS V13.00,2013-02-01 17:01:00,
2013-02-01 12:06:00,50.4,36.6,30.13,North,351,11.0,19.0,59,0.00,,SKC,0.00,VWS V13.00,2013-02-01 17:06:00,
2013-02-01 12:11:00,50.4,36.2,30.13,NNW,329,8.0,23.0,58,0.00,,SKC,0.00,VWS V13.00,2013-02-01 17:11:00,
2013-02-01 12:16:00,50.3,36.1,30.14,NNW,338,12.0,23.0,58,0.00,,SKC,0.00,VWS V13.00,2013-02-01 17:16:00,
2013-02-01 12:21:00,50.1,35.9,30.13,NNW,340,11.0,22.0,58,0.00,,SKC,0.00,VWS V13.00,2013-02-01 17:21:00,
2013-02-01 12:26:00,49.8,35.6,30.14,NNW,330,16.0,24.0,58,0.00,,SKC,0.00,VWS V13.00,2013-02-01 17:26:00,
2013-02-01 12:31:00,49.8,35.6,30.14,WNW,285,7.0,18.0,58,0.00,,SKC,0.00,VWS V13.00,2013-02-01 17:31:00,
2013-02-01 12:36:00,49.8,35.2,30.14,NW,306,9.0,28.0,57,0.00,,SKC,0.00,VWS V13.00,2013-02-01 17:36:00,
2013-02-01 12:41:00,49.6,34.6,30.14,WNW,282,24.0,27.0,56,0.00,,SKC,0.00,VWS V13.00,2013-02-01 17:41:00,
2013-02-01 12:46:00,49.5,34.5,30.15,WNW,284,12.0,22.0,56,0.00,,SKC,0.00,VWS V13.00,2013-02-01 17:46:00,
2013-02-01 12:51:00,49.6,34.1,30.15,NNW,333,8.0,21.0,55,0.00,,SKC,0.00,VWS V13.00,2013-02-01 17:51:00,
2013-02-01 12:56:00,49.4,33.5,30.15,WNW,301,9.0,23.0,54,0.00,,SKC,0.00,VWS V13.00,2013-02-01 17:56:00,
2013-02-01 13:01:00,49.0,33.1,30.15,WNW,283,11.0,25.0,54,0.00,,SKC,0.00,VWS V13.00,2013-02-01 18:01:00,
2013-02-01 13:06:00,48.7,32.8,30.15,NW,320,9.0,22.0,54,0.00,,SKC,0.00,VWS V13.00,2013-02-01 18:06:00,
2013-02-01 13:11:00,48.6,32.7,30.15,NW,320,10.0,20.0,54,0.00,,SKC,0.00,VWS V13.00,2013-02-01 18:11:00,
2013-02-01 13:16:00,48.7,31.9,30.15,West,269,7.0,25.0,52,0.00,,SKC,0.00,VWS V13.00,2013-02-01 18:16:00,
2013-02-01 13:21:00,48.8,32.0,30.15,NW,321,10.0,27.0,52,0.00,,SKC,0.00,VWS V13.00,2013-02-01 18:21:00,
2013-02-01 13:26:00,49.0,31.7,30.16,NNW,338,7.0,21.0,51,0.00,,SKC,0.00,VWS V13.00,2013-02-01 18:26:00,
2013-02-01 13:31:00,49.2,32.3,30.16,NW,318,9.0,19.0,52,0.00,,SKC,0.00,VWS V13.00,2013-02-01 18:31:00,
2013-02-01 13:36:00,49.6,32.7,30.16,West,279,16.0,22.0,52,0.00,,SKC,0.00,VWS V13.00,2013-02-01 18:36:00,
2013-02-01 13:41:00,49.5,31.6,30.16,WNW,283,12.0,21.0,50,0.00,,SKC,0.00,VWS V13.00,2013-02-01 18:41:00,
2013-02-01 13:46:00,49.2,31.4,30.16,NNW,329,12.0,21.0,50,0.00,,SKC,0.00,VWS V13.00,2013-02-01 18:46:00,
2013-02-01 13:50:00,48.8,31.0,30.17,NNW,340,6.0,20.0,50,0.00,,SKC,0.00,VWS V13.00,2013-02-01 18:50:00,
2013-02-01 13:55:00,48.7,30.4,30.17,WNW,283,11.0,19.0,49,0.00,,SKC,0.00,VWS V13.00,2013-02-01 18:55:00,
2013-02-01 14:00:00,48.7,30.4,30.17,WNW,284,9.0,25.0,49,0.00,,SKC,0.00,VWS V13.00,2013-02-01 19:00:00,
2013-02-01 14:05:00,48.5,29.7,30.17,WNW,286,13.0,23.0,48,0.00,,SKC,0.00,VWS V13.00,2013-02-01 19:05:00,
2013-02-01 14:10:00,48.1,28.8,30.17,NW,306,22.0,23.0,47,0.00,,SKC,0.00,VWS V13.00,2013-02-01 19:10:00,
2013-02-01 14:15:00,47.8,28.6,30.17,WNW,286,4.0,22.0,47,0.00,,SKC,0.00,VWS V13.00,2013-02-01 19:15:00,
2013-02-01 14:20:00,47.6,28.4,30.17,WNW,292,10.0,22.0,47,0.00,,SKC,0.00,VWS V13.00,2013-02-01 19:20:00,
2013-02-01 14:25:00,47.6,28.4,30.17,West,281,10.0,19.0,47,0.00,,SKC,0.00,VWS V13.00,2013-02-01 19:25:00,
2013-02-01 14:30:00,47.8,28.6,30.17,WNW,288,16.0,17.0,47,0.00,,SKC,0.00,VWS V13.00,2013-02-01 19:30:00,
2013-02-01 14:35:00,48.1,28.8,30.17,NNW,333,9.0,19.0,47,0.00,,SKC,0.00,VWS V13.00,2013-02-01 19:35:00,
2013-02-01 14:40:00,47.9,28.7,30.17,WNW,294,10.0,19.0,47,0.00,,SKC,0.00,VWS V13.00,2013-02-01 19:40:00,
2013-02-01 14:45:00,47.6,27.9,30.18,West,281,10.0,20.0,46,0.00,,SKC,0.00,VWS V13.00,2013-02-01 19:45:00,
2013-02-01 14:50:00,47.4,27.7,30.18,NW,322,7.0,16.0,46,0.00,,SKC,0.00,VWS V13.00,2013-02-01 19:50:00,
2013-02-01 14:55:00,47.1,27.4,30.18,NW,319,9.0,25.0,46,0.00,,SKC,0.00,VWS V13.00,2013-02-01 19:55:00,
2013-02-01 15:00:00,46.9,27.2,30.18,WNW,296,4.0,19.0,46,0.00,,SKC,0.00,VWS V13.00,2013-02-01 20:00:00,
2013-02-01 15:05:00,46.8,27.1,30.18,NNW,331,9.0,15.0,46,0.00,,SKC,0.00,VWS V13.00,2013-02-01 20:05:00,
2013-02-01 15:10:00,46.7,27.0,30.19,NNW,346,10.0,16.0,46,0.00,,SKC,0.00,VWS V13.00,2013-02-01 20:10:00,
2013-02-01 15:16:00,46.6,26.9,30.19,NW,307,12.0,16.0,46,0.00,,SKC,0.00,VWS V13.00,2013-02-01 20:16:00,
2013-02-01 15:21:00,46.5,26.9,30.19,NW,313,7.0,18.0,46,0.00,,SKC,0.00,VWS V13.00,2013-02-01 20:21:00,
2013-02-01 15:26:00,46.2,26.6,30.20,NNW,336,12.0,18.0,46,0.00,,SKC,0.00,VWS V13.00,2013-02-01 20:26:00,
2013-02-01 15:31:00,46.0,25.9,30.20,North,355,11.0,17.0,45,0.00,,SKC,0.00,VWS V13.00,2013-02-01 20:31:00,
2013-02-01 15:36:00,45.8,26.2,30.20,NNW,340,4.0,18.0,46,0.00,,SKC,0.00,VWS V13.00,2013-02-01 20:36:00,
2013-02-01 15:41:00,45.8,25.7,30.21,NW,322,9.0,19.0,45,0.00,,SKC,0.00,VWS V13.00,2013-02-01 20:41:00,
2013-02-01 15:46:00,45.7,26.1,30.21,NW,319,5.0,18.0,46,0.00,,SKC,0.00,VWS V13.00,2013-02-01 20:46:00,
2013-02-01 15:51:00,45.6,25.5,30.21,NW,314,5.0,14.0,45,0.00,,SKC,0.00,VWS V13.00,2013-02-01 20:51:00,
2013-02-01 15:56:00,45.3,25.2,30.21,NW,321,10.0,15.0,45,0.00,,SKC,0.00,VWS V13.00,2013-02-01 20:56:00,
2013-02-01 16:01:00,45.0,25.0,30.22,West,280,4.0,17.0,45,0.00,,SKC,0.00,VWS V13.00,2013-02-01 21:01:00,
2013-02-01 16:06:00,44.7,24.7,30.22,WNW,302,11.0,15.0,45,0.00,,SKC,0.00,VWS V13.00,2013-02-01 21:06:00,
2013-02-01 16:11:00,44.6,24.6,30.23,NW,323,8.0,19.0,45,0.00,,SKC,0.00,VWS V13.00,2013-02-01 21:11:00,
2013-02-01 16:16:00,44.2,24.2,30.23,WNW,299,4.0,19.0,45,0.00,,SKC,0.00,VWS V13.00,2013-02-01 21:16:00,
2013-02-01 16:21:00,43.9,24.0,30.23,West,279,4.0,15.0,45,0.00,,SKC,0.00,VWS V13.00,2013-02-01 21:21:00,
2013-02-01 16:26:00,43.8,23.9,30.24,NNW,337,4.0,14.0,45,0.00,,SKC,0.00,VWS V13.00,2013-02-01 21:26:00,
2013-02-01 16:31:00,43.7,23.8,30.24,NNW,327,8.0,17.0,45,0.00,,SKC,0.00,VWS V13.00,2013-02-01 21:31:00,
2013-02-01 16:36:00,43.4,23.5,30.24,NW,308,6.0,17.0,45,0.00,,SKC,0.00,VWS V13.00,2013-02-01 21:36:00,
2013-02-01 16:41:00,43.1,23.2,30.25,NNW,339,6.0,18.0,45,0.00,,SKC,0.00,VWS V13.00,2013-02-01 21:41:00,
2013-02-01 16:46:00,42.8,23.0,30.25,NW,321,5.0,13.0,45,0.00,,SKC,0.00,VWS V13.00,2013-02-01 21:46:00,
2013-02-01 16:51:00,42.5,22.7,30.25,NW,317,5.0,14.0,45,0.00,,SKC,0.00,VWS V13.00,2013-02-01 21:51:00,
2013-02-01 16:56:00,42.4,23.1,30.25,West,280,12.0,13.0,46,0.00,,SKC,0.00,VWS V13.00,2013-02-01 21:56:00,
2013-02-01 17:01:00,42.2,22.9,30.26,NNW,333,10.0,15.0,46,0.00,,SKC,0.00,VWS V13.00,2013-02-01 22:01:00,
2013-02-01 17:06:00,42.0,22.7,30.26,NNW,333,2.0,12.0,46,0.00,,SKC,0.00,VWS V13.00,2013-02-01 22:06:00,
2013-02-01 17:11:00,41.7,22.5,30.26,WNW,282,4.0,14.0,46,0.00,,SKC,0.00,VWS V13.00,2013-02-01 22:11:00,
2013-02-01 17:16:00,41.4,22.2,30.26,NW,319,4.0,13.0,46,0.00,,SKC,0.00,VWS V13.00,2013-02-01 22:16:00,
2013-02-01 17:21:00,41.1,21.9,30.26,NNW,335,12.0,17.0,46,0.00,,SKC,0.00,VWS V13.00,2013-02-01 22:21:00,
2013-02-01 17:26:00,40.9,21.7,30.26,NW,307,5.0,13.0,46,0.00,,SKC,0.00,VWS V13.00,2013-02-01 22:26:00,
2013-02-01 17:31:00,40.7,21.5,30.27,NW,306,13.0,15.0,46,0.00,,SKC,0.00,VWS V13.00,2013-02-01 22:31:00,
2013-02-01 17:36:00,40.5,21.4,30.27,WNW,291,8.0,12.0,46,0.00,,SKC,0.00,VWS V13.00,2013-02-01 22:36:00,
2013-02-01 17:41:00,40.2,21.1,30.27,NW,319,3.0,13.0,46,0.00,,SKC,0.00,VWS V13.00,2013-02-01 22:41:00,
2013-02-01 17:46:00,40.0,20.9,30.27,NW,321,5.0,12.0,46,0.00,,SKC,0.00,VWS V13.00,2013-02-01 22:46:00,
2013-02-01 17:51:00,39.7,20.6,30.28,NNW,327,0.0,10.0,46,0.00,,SKC,0.00,VWS V13.00,2013-02-01 22:51:00,
2013-02-01 17:56:00,39.4,20.9,30.28,NNW,333,2.0,8.0,47,0.00,,SKC,0.00,VWS V13.00,2013-02-01 22:56:00,
2013-02-01 18:01:00,39.1,20.6,30.28,WNW,292,6.0,7.0,47,0.00,,SKC,0.00,VWS V13.00,2013-02-01 23:01:00,
2013-02-01 18:06:00,38.9,20.4,30.28,WNW,296,8.0,9.0,47,0.00,,SKC,0.00,VWS V13.00,2013-02-01 23:06:00,
2013-02-01 18:11:00,38.7,20.2,30.29,NNW,333,3.0,11.0,47,0.00,,SKC,0.00,VWS V13.00,2013-02-01 23:11:00,
2013-02-01 18:16:00,38.6,20.1,30.29,NW,308,4.0,11.0,47,0.00,,SKC,0.00,VWS V13.00,2013-02-01 23:16:00,
2013-02-01 18:21:00,38.4,19.9,30.29,NW,311,0.0,9.0,47,0.00,,SKC,0.00,VWS V13.00,2013-02-01 23:21:00,
2013-02-01 18:26:00,38.3,20.4,30.30,NW,305,2.0,9.0,48,0.00,,SKC,0.00,VWS V13.00,2013-02-01 23:26:00,
2013-02-01 18:31:00,38.1,20.2,30.30,NW,321,4.0,10.0,48,0.00,,SKC,0.00,VWS V13.00,2013-02-01 23:31:00,
2013-02-01 18:36:00,37.9,20.0,30.30,North,349,7.0,7.0,48,0.00,,SKC,0.00,VWS V13.00,2013-02-01 23:36:00,
2013-02-01 18:41:00,37.7,19.8,30.31,NW,309,0.0,10.0,48,0.00,,SKC,0.00,VWS V13.00,2013-02-01 23:41:00,
2013-02-01 18:46:00,37.5,19.6,30.31,WNW,299,5.0,10.0,48,0.00,,SKC,0.00,VWS V13.00,2013-02-01 23:46:00,
2013-02-01 18:51:00,37.3,19.4,30.31,NW,309,1.0,8.0,48,0.00,,SKC,0.00,VWS V13.00,2013-02-01 23:51:00,
2013-02-01 18:56:00,37.1,19.2,30.31,NW,316,2.0,6.0,48,0.00,,SKC,0.00,VWS V13.00,2013-02-01 23:56:00,
2013-02-01 19:01:00,36.9,19.1,30.32,NW,306,2.0,7.0,48,0.00,,SKC,0.00,VWS V13.00,2013-02-02 00:01:00,
2013-02-01 19:06:00,36.7,18.9,30.32,NNW,327,3.0,9.0,48,0.00,,SKC,0.00,VWS V13.00,2013-02-02 00:06:00,
2013-02-01 19:11:00,36.5,19.2,30.32,NW,323,2.0,5.0,49,0.00,,SKC,0.00,VWS V13.00,2013-02-02 00:11:00,
2013-02-01 19:16:00,36.3,19.0,30.33,WNW,298,1.0,7.0,49,0.00,,SKC,0.00,VWS V13.00,2013-02-02 00:16:00,
2013-02-01 19:21:00,36.0,18.7,30.33,NNW,333,2.0,6.0,49,0.00,,SKC,0.00,VWS V13.00,2013-02-02 00:21:00,
2013-02-01 19:26:00,35.7,18.4,30.33,NW,314,5.0,8.0,49,0.00,,SKC,0.00,VWS V13.00,2013-02-02 00:26:00,
2013-02-01 19:31:00,35.5,18.2,30.33,NNW,340,3.0,5.0,49,0.00,,SKC,0.00,VWS V13.00,2013-02-02 00:31:00,
2013-02-01 19:36:00,35.2,18.0,30.33,North,355,2.0,5.0,49,0.00,,SKC,0.00,VWS V13.00,2013-02-02 00:36:00,
2013-02-01 19:41:00,34.9,17.7,30.34,NNW,344,3.0,6.0,49,0.00,,SKC,0.00,VWS V13.00,2013-02-02 00:41:00,
2013-02-01 19:46:00,34.6,17.4,30.34,North,360,0.0,3.0,49,0.00,,SKC,0.00,VWS V13.00,2013-02-02 00:46:00,
2013-02-01 19:51:00,34.4,17.7,30.34,North,360,1.0,4.0,50,0.00,,SKC,0.00,VWS V13.00,2013-02-02 00:51:00,
2013-02-01 19:56:00,34.1,17.4,30.35,North,360,0.0,3.0,50,0.00,,SKC,0.00,VWS V13.00,2013-02-02 00:56:00,
2013-02-01 20:01:00,33.7,17.0,30.34,NNW,342,1.0,5.0,50,0.00,,SKC,0.00,VWS V13.00,2013-02-02 01:01:00,
2013-02-01 20:06:00,33.4,16.8,30.35,NNW,344,1.0,6.0,50,0.00,,SKC,0.00,VWS V13.00,2013-02-02 01:06:00,
2013-02-01 20:11:00,33.1,16.5,30.35,NNW,339,5.0,5.0,50,0.00,,SKC,0.00,VWS V13.00,2013-02-02 01:11:00,
2013-02-01 20:16:00,32.9,16.8,30.35,North,355,0.0,4.0,51,0.00,,SKC,0.00,VWS V13.00,2013-02-02 01:16:00,
2013-02-01 20:21:00,32.8,16.7,30.35,NNW,344,2.0,4.0,51,0.00,,SKC,0.00,VWS V13.00,2013-02-02 01:21:00,
2013-02-01 20:26:00,32.6,16.5,30.35,North,355,0.0,4.0,51,0.00,,SKC,0.00,VWS V13.00,2013-02-02 01:26:00,
2013-02-01 20:31:00,32.4,16.3,30.35,NNW,343,0.0,4.0,51,0.00,,SKC,0.00,VWS V13.00,2013-02-02 01:31:00,
2013-02-01 20:36:00,32.3,16.2,30.35,North,350,0.0,7.0,51,0.00,,SKC,0.00,VWS V13.00,2013-02-02 01:36:00,
2013-02-01 20:41:00,32.1,16.0,30.36,NNW,335,1.0,5.0,51,0.00,,SKC,0.00,VWS V13.00,2013-02-02 01:41:00,
2013-02-01 20:46:00,31.9,15.8,30.36,NW,322,4.0,4.0,51,0.00,,SKC,0.00,VWS V13.00,2013-02-02 01:46:00,
2013-02-01 20:51:00,31.7,15.7,30.36,NNW,328,1.0,3.0,51,0.00,,SKC,0.00,VWS V13.00,2013-02-02 01:51:00,
2013-02-01 20:56:00,31.4,15.8,30.37,NNW,336,0.0,6.0,52,0.00,,SKC,0.00,VWS V13.00,2013-02-02 01:56:00,
2013-02-01 21:01:00,31.2,15.6,30.37,NNW,329,4.0,4.0,52,0.00,,SKC,0.00,VWS V13.00,2013-02-02 02:01:00,
2013-02-01 21:06:00,31.0,15.4,30.37,NNW,329,0.0,4.0,52,0.00,,SKC,0.00,VWS V13.00,2013-02-02 02:06:00,
2013-02-01 21:11:00,30.7,15.2,30.37,NNW,329,0.0,0.0,52,0.00,,SKC,0.00,VWS V13.00,2013-02-02 02:11:00,
2013-02-01 21:16:00,30.5,15.0,30.37,NNW,329,0.0,0.0,52,0.00,,SKC,0.00,VWS V13.00,2013-02-02 02:16:00,
2013-02-01 21:21:00,30.2,14.7,30.37,NNW,329,1.0,2.0,52,0.00,,SKC,0.00,VWS V13.00,2013-02-02 02:21:00,
2013-02-01 21:26:00,29.9,14.9,30.37,NW,322,3.0,4.0,53,0.00,,SKC,0.00,VWS V13.00,2013-02-02 02:26:00,
2013-02-01 21:31:00,29.6,14.6,30.38,NNW,333,0.0,3.0,53,0.00,,SKC,0.00,VWS V13.00,2013-02-02 02:31:00,
2013-02-01 21:36:00,29.3,14.3,30.38,NNW,333,0.0,1.0,53,0.00,,SKC,0.00,VWS V13.00,2013-02-02 02:36:00,
2013-02-01 21:41:00,29.0,14.0,30.38,NNW,333,0.0,2.0,53,0.00,,SKC,0.00,VWS V13.00,2013-02-02 02:41:00,
2013-02-01 21:46:00,28.8,13.8,30.38,North,360,2.0,4.0,53,0.00,,SKC,0.00,VWS V13.00,2013-02-02 02:46:00,
2013-02-01 21:51:00,28.7,14.2,30.38,NNW,340,2.0,5.0,54,0.00,,SKC,0.00,VWS V13.00,2013-02-02 02:51:00,
2013-02-01 21:56:00,28.5,14.0,30.38,NW,304,1.0,5.0,54,0.00,,SKC,0.00,VWS V13.00,2013-02-02 02:56:00,
2013-02-01 22:01:00,28.4,13.9,30.39,NW,323,1.0,5.0,54,0.00,,SKC,0.00,VWS V13.00,2013-02-02 03:01:00,
2013-02-01 22:06:00,28.3,13.8,30.39,NW,324,1.0,5.0,54,0.00,,SKC,0.00,VWS V13.00,2013-02-02 03:06:00,
2013-02-01 22:11:00,28.4,13.9,30.39,NNW,338,3.0,4.0,54,0.00,,SKC,0.00,VWS V13.00,2013-02-02 03:11:00,
2013-02-01 22:16:00,28.5,14.0,30.39,NNW,339,4.0,5.0,54,0.00,,SKC,0.00,VWS V13.00,2013-02-02 03:16:00,
2013-02-01 22:21:00,28.5,14.0,30.39,NW,323,2.0,6.0,54,0.00,,SKC,0.00,VWS V13.00,2013-02-02 03:21:00,
2013-02-01 22:26:00,28.5,14.0,30.40,NW,309,3.0,6.0,54,0.00,,SKC,0.00,VWS V13.00,2013-02-02 03:26:00,
2013-02-01 22:31:00,28.6,14.1,30.40,NW,321,3.0,5.0,54,0.00,,SKC,0.00,VWS V13.00,2013-02-02 03:31:00,
2013-02-01 22:36:00,28.7,14.2,30.40,NNW,338,3.0,7.0,54,0.00,,SKC,0.00,VWS V13.00,2013-02-02 03:36:00,
2013-02-01 22:41:00,29.0,14.4,30.40,North,360,3.0,7.0,54,0.00,,SKC,0.00,VWS V13.00,2013-02-02 03:41:00,
2013-02-01 22:46:00,29.3,14.7,30.40,NNW,332,5.0,8.0,54,0.00,,SKC,0.00,VWS V13.00,2013-02-02 03:46:00,
2013-02-01 22:51:00,29.6,15.0,30.40,NNW,339,2.0,5.0,54,0.00,,SKC,0.00,VWS V13.00,2013-02-02 03:51:00,
2013-02-01 22:56:00,29.8,15.2,30.40,NNW,338,2.0,7.0,54,0.00,,SKC,0.00,VWS V13.00,2013-02-02 03:56:00,
2013-02-01 23:01:00,30.0,15.4,30.40,North,355,3.0,7.0,54,0.00,,SKC,0.00,VWS V13.00,2013-02-02 04:01:00,
2013-02-01 23:06:00,30.1,15.5,30.40,NNW,335,3.0,6.0,54,0.00,,SKC,0.00,VWS V13.00,2013-02-02 04:06:00,
2013-02-01 23:11:00,30.1,15.5,30.40,NNW,333,3.0,6.0,54,0.00,,SKC,0.00,VWS V13.00,2013-02-02 04:11:00,
2013-02-01 23:16:00,30.1,15.5,30.40,NNW,327,1.0,7.0,54,0.00,,SKC,0.00,VWS V13.00,2013-02-02 04:16:00,
2013-02-01 23:21:00,30.1,15.5,30.40,NNW,348,2.0,5.0,54,0.00,,SKC,0.00,VWS V13.00,2013-02-02 04:21:00,
2013-02-01 23:26:00,30.0,15.4,30.40,NNW,344,3.0,7.0,54,0.00,,SKC,0.00,VWS V13.00,2013-02-02 04:26:00,
2013-02-01 23:31:00,29.9,15.3,30.40,NNW,339,3.0,4.0,54,0.00,,SKC,0.00,VWS V13.00,2013-02-02 04:31:00,
2013-02-01 23:36:00,29.8,15.2,30.40,NNW,334,2.0,7.0,54,0.00,,SKC,0.00,VWS V13.00,2013-02-02 04:36:00,
2013-02-01 23:41:00,29.8,15.2,30.40,North,360,5.0,6.0,54,0.00,,SKC,0.00,VWS V13.00,2013-02-02 04:41:00,
2013-02-01 23:46:00,29.8,15.2,30.40,NNW,347,3.0,4.0,54,0.00,,SKC,0.00,VWS V13.00,2013-02-02 04:46:00,
2013-02-01 23:51:00,29.7,15.1,30.40,NNW,337,3.0,9.0,54,0.00,,SKC,0.00,VWS V13.00,2013-02-02 04:51:00,
2013-02-01 23:56:00,29.6,15.0,30.40,North,360,3.0,8.0,54,0.00,,SKC,0.00,VWS V13.00,2013-02-02 04:56:00,